Share

Quincy, KY

Air Evac 97 Portsmouth (KOHPORTS4) Elev 564 ft | 38.74 °N, 82.99 °W | Change Station

Current weather conditions updated 6 minutes ago

Clear
Clear
62.1 °F
Feels Like 62.1 °F
N
3.0
Wind Variable Wind from West
Gusts 6.0 mph
Sunrise 6:51 AM
Sunset 8:12 PM
Moon Waning Gibbous

Today is forecast to be nearly the same temperature as yesterday.

Pressure 30.31 in
Visibility 10.0 miles
Clouds Clear
Dew Point 39 °F
Humidity 42%
Rainfall 0.00 in
Snow Depth Not available.
UV 6 out of 16
Pollen 10.00 out of 12
Air Quality Not available.
Flu Activity Sporadic
METAR KHTS 181451Z 21006KT 10SM CLR 15/M03 A3031

More Conditions Fewer Conditions

Pressure 30.31 in
Visibility 10.0 miles
Clouds Clear
Dew Point 39 °F
Humidity 42%
Rainfall 0.00 in
Snow Depth Not available.
UV 6 out of 16
Pollen 10.00 out of 12
Air Quality Not available.
Flu Activity Sporadic
METAR KHTS 181451Z 21006KT 10SM CLR 15/M03 A3031

More Conditions Fewer Conditions

10-Day Forecast

Almanac

Astronomy

Apr. 18, 2014 Rise Set
Actual Time 6:51 AM EDT 8:12 PM EDT
Civil Twilight 6:24 AM EDT 8:39 PM EDT
Nautical Twilight 5:51 AM EDT 9:12 PM EDT
Astronomical Twilight 5:16 AM EDT 9:47 PM EDT
Moon 11:54 PM EDT 9:14 AM EDT
Length of Visible Light 14h 15m
Length of Day
13h 20m
Tomorrow will be 2m 21s longer.
Waning Gibbous, 87% of the Moon is Illuminated
Today
Waning Gibbous
Apr 22
Last Quarter
Apr 29
New
May 6
First Quarter
May 14
Full

Today's Extremes

State Highs State Lows

Community

  • What's for Lunch?
    What's for Lunch?
  • SUNRISE THROUGH THE TREES.
    SUNRISE THROUGH THE TREES.
  • Dog Wood Blossoms
    Dog Wood Blossoms
  • Morning Light
    Morning Light
  • New Day
    New Day

WunderPhotos

Upload Photos

1,702,397 photos uploaded!

Nearby

Snow Depth

Station Depth Elevation
No new snow has been reported.

Coastal Water Temperatures

Place Temperature
No Stations Reporting

Earthquake Activity

City Distance Mag. Time & Date
No recent earthquake activity has been reported nearby.
Minimum magnitude displayed is 2.5.

Nearby Weather Stations

Station Location Temp. Dew Point Humidity Wind Precip. Elev Updated Type
Air Evac 97 Portsmouth, Portsmouth, OH 62.1 °F 39 °F 42% West  at  3.0 mph 0.00 in / hr 564 ft 11:23 AM EDT Normal
Thomas Hollow, Lucasville, OH 61.9 °F 15 °F 16% SSE  at  0.0 mph 0.00 in / hr 889 ft 11:15 AM EDT Normal
Rockgate Road, Flatwoods, KY 64.6 °F 39 °F 39% East  at  4.7 mph - / hr 669 ft 11:24 AM EDT Normal
Edge of Appalachia Preserve, West Union, OH 65.5 °F 38 °F 36% SE  at  2.7 mph 0.00 in / hr 663 ft 11:29 AM EDT Rapid Fire
Green Valley, Ironton, OH 63.5 °F 35 °F 34% SE  at  2.2 mph - / hr 787 ft 11:29 AM EDT Rapid Fire
Flatwoods y, Flatwoods,, KY 64.8 °F 36 °F 34% SW  at  3.7 mph - / hr 692 ft 10:15 AM CDT Normal

Show More Stations Show Fewer Stations

What do you think?

We're not finished. Please let us know what you like, what you don't like, and what you are still missing.